Map

Track Data

SID SEASON NUMBER BASIN SUBBASIN NAME ISO_TIME NATURE LAT LON WMO_WIND WMO_PRES WMO_AGENCY TRACK_TYPE DIST2LAND LANDFALL IFLAG USA_AGENCY USA_ATCF_ID USA_LAT USA_LON USA_RECORD USA_STATUS USA_WIND USA_PRES USA_SSHS USA_R34_NE USA_R34_SE USA_R34_SW USA_R34_NW USA_R50_NE USA_R50_SE USA_R50_SW USA_R50_NW USA_R64_NE USA_R64_SE USA_R64_SW USA_R64_NW USA_POCI USA_ROCI USA_RMW USA_EYE TOKYO_LAT TOKYO_LON TOKYO_GRADE TOKYO_WIND TOKYO_PRES TOKYO_R50_DIR TOKYO_R50_LONG TOKYO_R50_SHORT TOKYO_R30_DIR TOKYO_R30_LONG TOKYO_R30_SHORT TOKYO_LAND CMA_LAT CMA_LON CMA_CAT CMA_WIND CMA_PRES HKO_LAT HKO_LON HKO_CAT HKO_WIND HKO_PRES NEWDELHI_LAT NEWDELHI_LON NEWDELHI_GRADE NEWDELHI_WIND NEWDELHI_PRES NEWDELHI_CI NEWDELHI_DP NEWDELHI_POCI REUNION_LAT REUNION_LON REUNION_TYPE REUNION_WIND REUNION_PRES REUNION_TNUM REUNION_CI REUNION_RMW REUNION_R34_NE REUNION_R34_SE REUNION_R34_SW REUNION_R34_NW REUNION_R50_NE REUNION_R50_SE REUNION_R50_SW REUNION_R50_NW REUNION_R64_NE REUNION_R64_SE REUNION_R64_SW REUNION_R64_NW BOM_LAT BOM_LON BOM_TYPE BOM_WIND BOM_PRES BOM_TNUM BOM_CI BOM_RMW BOM_R34_NE BOM_R34_SE BOM_R34_SW BOM_R34_NW BOM_R50_NE BOM_R50_SE BOM_R50_SW BOM_R50_NW BOM_R64_NE BOM_R64_SE BOM_R64_SW BOM_R64_NW BOM_ROCI BOM_POCI BOM_EYE BOM_POS_METHOD BOM_PRES_METHOD NADI_LAT NADI_LON NADI_CAT NADI_WIND NADI_PRES WELLINGTON_LAT WELLINGTON_LON WELLINGTON_WIND WELLINGTON_PRES DS824_LAT DS824_LON DS824_STAGE DS824_WIND DS824_PRES TD9636_LAT TD9636_LON TD9636_STAGE TD9636_WIND TD9636_PRES TD9635_LAT TD9635_LON TD9635_WIND TD9635_PRES TD9635_ROCI NEUMANN_LAT NEUMANN_LON NEUMANN_CLASS NEUMANN_WIND NEUMANN_PRES MLC_LAT MLC_LON MLC_CLASS MLC_WIND MLC_PRES USA_GUST BOM_GUST BOM_GUST_PER REUNION_GUST REUNION_GUST_PER USA_SEAHGT USA_SEARAD_NE USA_SEARAD_SE USA_SEARAD_SW USA_SEARAD_NW STORM_SPEED STORM_DIR
1972018S18183 1972 6 SP MM NOT_NAMED 1972-01-18 00:00:00 TS -18.3000 -177.500 30 997 wellington main 322 322 ________O___O_ -1 -18.3000 -177.500 30 997 -18.3000 -177.500 TC 15 11 91
1972018S18183 1972 6 SP MM NOT_NAMED 1972-01-18 03:00:00 TS -18.3079 -176.943 main 378 378 ________P___P_ -1 -18.3156 -176.937 30 997 -18.3003 -176.950 TC 15 11 91
1972018S18183 1972 6 SP MM NOT_NAMED 1972-01-18 06:00:00 TS -18.3121 -176.389 main 426 426 ________P___O_ -1 -18.3242 -176.379 30 997 -18.3000 -176.400 TC 15 10 90
1972018S18183 1972 6 SP MM NOT_NAMED 1972-01-18 09:00:00 TS -18.3103 -175.841 main 485 485 ________P___P_ -1 -18.3207 -175.831 30 997 -18.2998 -175.850 TC 15 10 89
1972018S18183 1972 6 SP MM NOT_NAMED 1972-01-18 12:00:00 TS -18.3000 -175.300 30 997 wellington main 535 535 ________O___O_ -1 -18.3000 -175.300 30 997 -18.3000 -175.300 TC 15 10 88
1972018S18183 1972 6 SP MM NOT_NAMED 1972-01-18 15:00:00 TS -18.2782 -174.765 main 555 535 ________P___P_ -1 -18.2641 -174.787 30 997 -18.2924 -174.742 TC 15 10 88
1972018S18183 1972 6 SP MM NOT_NAMED 1972-01-18 18:00:00 TS -18.2718 -174.239 main 531 519 ________P___O_ -1 -18.2437 -174.278 30 997 -18.3000 -174.200 TC 15 10 91
1972018S18183 1972 6 SP MM NOT_NAMED 1972-01-18 21:00:00 TS -18.2943 -173.739 main 517 510 ________P___P_ -1 -18.2765 -173.755 30 997 -18.3120 -173.722 TC 17 10 97
1972018S18183 1972 6 SP MM NOT_NAMED 1972-01-19 00:00:00 TS -18.4000 -173.200 30 997 wellington main 518 516 ________O___O_ -1 -18.4000 -173.200 30 997 -18.4000 -173.200 TC 20 12 106
1972018S18183 1972 6 SP MM NOT_NAMED 1972-01-19 03:00:00 TS -18.6215 -172.541 main 537 537 ________P___P_ -1 -18.6529 -172.567 30 997 -18.5902 -172.515 TC 20 14 113
1972018S18183 1972 6 SP MM NOT_NAMED 1972-01-19 06:00:00 TS -18.9478 -171.851 main 571 571 ________P___O_ -1 -18.9956 -171.902 30 997 -18.9000 -171.800 TC 20 15 120
1972018S18183 1972 6 SP MM NOT_NAMED 1972-01-19 09:00:00 TS -19.3626 -171.206 main 635 635 ________P___P_ -1 -19.3904 -171.235 30 997 -19.3347 -171.178 TC 20 15 126
1972018S18183 1972 6 SP MM NOT_NAMED 1972-01-19 12:00:00 TS -19.8000 -170.600 30 997 wellington main 692 692 ________O___O_ -1 -19.8000 -170.600 30 997 -19.8000 -170.600 TC 20 14 126
1972018S18183 1972 6 SP MM NOT_NAMED 1972-01-19 15:00:00 TS -20.1580 -170.034 main 753 753 ________P___P_ -1 -20.1587 -170.034 30 997 -20.1573 -170.035 TC 20 13 125
1972018S18183 1972 6 SP MM NOT_NAMED 1972-01-19 18:00:00 TS -20.5131 -169.502 main 802 802 ________P___O_ -1 -20.5263 -169.504 30 997 -20.5000 -169.500 TC 20 12 127
1972018S18183 1972 6 SP MM NOT_NAMED 1972-01-19 21:00:00 TS -20.8990 -168.994 main 863 863 ________P___P_ -1 -20.9057 -168.996 30 997 -20.8923 -168.992 TC 20 12 130
1972018S18183 1972 6 SP MM NOT_NAMED 1972-01-20 00:00:00 TS -21.3000 -168.500 30 997 wellington main 926 926 ________O___O_ -1 -21.3000 -168.500 30 997 -21.3000 -168.500 TC 20 12 130
1972018S18183 1972 6 SP MM NOT_NAMED 1972-01-20 03:00:00 TS -21.6890 -167.996 main 989 989 ________P___P_ -1 -21.6857 -167.991 30 997 -21.6924 -168.000 TC 20 12 130
1972018S18183 1972 6 SP MM NOT_NAMED 1972-01-20 06:00:00 TS -22.0947 -167.495 main 1053 1053 ________P___O_ -1 -22.0893 -167.490 30 997 -22.1000 -167.500 TC 20 12 132
1972018S18183 1972 6 SP MM NOT_NAMED 1972-01-20 09:00:00 TS -22.5253 -167.001 main 1117 1117 ________P___P_ -1 -22.5233 -166.994 30 997 -22.5273 -167.007 TC 20 13 135
1972018S18183 1972 6 SP MM NOT_NAMED 1972-01-20 12:00:00 TS -23.0000 -166.500 30 997 wellington main 1191 1191 ________O___O_ -1 -23.0000 -166.500 30 997 -23.0000 -166.500 TC 20 14 137
1972018S18183 1972 6 SP MM NOT_NAMED 1972-01-20 15:00:00 TS -23.5666 -165.938 main 1280 1280 ________P___P_ -1 -23.6056 -165.934 30 997 -23.5275 -165.942 TC 20 16 139
1972018S18183 1972 6 SP MM NOT_NAMED 1972-01-20 18:00:00 TS -24.1705 -165.388 main 1364 1364 ________P___O_ -1 -24.2410 -165.377 30 997 -24.1000 -165.400 TC 20 16 142
1972018S18183 1972 6 SP MM NOT_NAMED 1972-01-20 21:00:00 TS -24.7954 -164.878 main 1448 1448 ________P___P_ -1 -24.8308 -164.881 30 997 -24.7601 -164.876 TC 22 14 144
1972018S18183 1972 6 SP MM NOT_NAMED 1972-01-21 00:00:00 TS -25.3000 -164.500 30 997 wellington main 1517 1517 ________O___O_ -1 -25.3000 -164.500 30 997 -25.3000 -164.500 TC 25 9 147
1972018S18183 1972 6 SP MM NOT_NAMED 1972-01-21 03:00:00 TS -25.5410 -164.350 main 1541 1541 ________P___P_ -1 -25.5572 -164.304 30 997 -25.5247 -164.397 TC 25 4 154
1972018S18183 1972 6 SP MM NOT_NAMED 1972-01-21 06:00:00 TS -25.6456 -164.313 main 1556 1556 ________P___O_ -1 -25.6912 -164.227 30 997 -25.6000 -164.400 TC 25 2 158
1972018S18183 1972 6 SP MM NOT_NAMED 1972-01-21 09:00:00 TS -25.7310 -164.259 main 1565 1565 ________P___P_ -1 -25.7545 -164.211 30 997 -25.7075 -164.307 TC 25 2 146
1972018S18183 1972 6 SP MM NOT_NAMED 1972-01-21 12:00:00 TS -25.8000 -164.200 30 997 wellington main 1580 1580 ________O___O_ -1 -25.8000 -164.200 30 997 -25.8000 -164.200 TC 25 2 141
1972018S18183 1972 6 SP MM NOT_NAMED 1972-01-21 15:00:00 TS -25.8995 -164.108 main 1595 1595 ________P___P_ -1 -25.8990 -164.115 32 995 -25.9000 -164.100 TC 27 3 139
1972018S18183 1972 6 SP MM NOT_NAMED 1972-01-21 18:00:00 TS -25.9962 -164.011 main 1610 1610 ________P___O_ -1 -25.9924 -164.022 35 993 -26.0000 -164.000 TC 30 3 138
1972018S18183 1972 6 SP MM NOT_NAMED 1972-01-21 21:00:00 TS -26.0910 -163.913 main 1625 1625 ________P___P_ -1 -26.0896 -163.918 37 991 -26.0925 -163.907 TC 30 3 137
1972018S18183 1972 6 SP MM NOT_NAMED 1972-01-22 00:00:00 TS -26.2000 -163.800 40 990 wellington main 1639 1639 ________O___O_ -1 -26.2000 -163.800 40 990 -26.2000 -163.800 TC 30 3 139
1972018S18183 1972 6 SP MM NOT_NAMED 1972-01-22 03:00:00 TS -26.3411 -163.667 main 1654 1654 ________P___P_ -1 -26.3396 -163.677 40 990 -26.3425 -163.658 TC 30 4 139
1972018S18183 1972 6 SP MM NOT_NAMED 1972-01-22 06:00:00 TS -26.4962 -163.519 main 1684 1684 ________P___O_ -1 -26.4924 -163.537 40 990 -26.5000 -163.500 TC 30 4 139
1972018S18183 1972 6 SP MM NOT_NAMED 1972-01-22 09:00:00 TS -26.6494 -163.369 main 1699 1699 ________P___P_ -1 -26.6489 -163.380 40 990 -26.6500 -163.357 TC 32 4 137
1972018S18183 1972 6 SP MM NOT_NAMED 1972-01-22 12:00:00 TS -26.8000 -163.200 40 990 wellington main 1728 1728 ________O___O_ -1 -26.8000 -163.200 40 990 -26.8000 -163.200 TC 35 4 132
1972018S18183 1972 6 SP MM NOT_NAMED 1972-01-22 15:00:00 TS -26.9388 -163.004 main 1749 1749 ________P___P_ -1 -26.9201 -162.992 40 990 -26.9575 -163.015 TC 35 5 126
1972018S18183 1972 6 SP MM NOT_NAMED 1972-01-22 18:00:00 TS -27.0676 -162.782 main 1778 1778 ________P___O_ -1 -27.0351 -162.765 40 990 -27.1000 -162.800 TC 35 5 120
1972018S18183 1972 6 SP MM NOT_NAMED 1972-01-22 21:00:00 TS -27.1751 -162.540 main 1805 1805 ________P___P_ -1 -27.1576 -162.530 40 990 -27.1925 -162.550 TC 32 5 118
1972018S18183 1972 6 SP MM NOT_NAMED 1972-01-23 00:00:00 TS -27.3000 -162.300 40 990 wellington main 1825 1825 ________O___O_ -1 -27.3000 -162.300 40 990 -27.3000 -162.300 TC 30 5 121
1972018S18183 1972 6 SP MM NOT_NAMED 1972-01-23 03:00:00 TS -27.4249 -162.076 main 1846 1846 ________P___P_ -1 -27.3649 -162.060 37 991 -27.4849 -162.092 TC 27 5 126
1972018S18183 1972 6 SP MM NOT_NAMED 1972-01-23 06:00:00 TS -27.5839 -161.866 main 1876 1876 ________P___O_ -1 -27.4679 -161.832 35 993 -27.7000 -161.900 TC 25 5 131
1972018S18183 1972 6 SP MM NOT_NAMED 1972-01-23 09:00:00 TS -27.7447 -161.665 main 1897 1897 ________P___P_ -1 -27.6868 -161.639 32 995 -27.8025 -161.692 TC 22 6 148
1972018S18183 1972 6 SP MM NOT_NAMED 1972-01-23 12:00:00 TS -28.1000 -161.500 30 997 wellington main 1944 1944 ________O___O_ -1 -28.1000 -161.500 30 997 -28.1000 -161.500 TC 20 11 166
1972018S18183 1972 6 SP MM NOT_NAMED 1972-01-23 15:00:00 TS -28.7995 -161.365 main 2013 2013 ________P___P_ -1 -28.7613 -161.431 30 997 -28.8376 -161.299 TC 17 16 174
1972018S18183 1972 6 SP MM NOT_NAMED 1972-01-23 18:00:00 TS -29.7137 -161.310 main 2053 1994 ________P___O_ -1 -29.6274 -161.421 30 997 -29.8000 -161.200 TC 15 19 0
1972018S18183 1972 6 SP MM NOT_NAMED 1972-01-23 21:00:00 TS -30.6962 -161.370 main 1989 1934 ________P___P_ -1 -30.6299 -161.450 30 997 -30.7625 -161.291 TC 15 20 185
1972018S18183 1972 6 SP MM NOT_NAMED 1972-01-24 00:00:00 TS -31.7000 -161.500 30 997 wellington main 1929 ________O___O_ -1 -31.7000 -161.500 30 997 -31.7000 -161.500 TC 15 20 186

Digital Typhoon Data and Search

About IBTrACS Database

This database is a web-friendly format of International Best Track Archive for Climate Stewardship (IBTrACS), a global best track data archive curated by NOAA dating back to 1842.

Updated: 2021-10-21